createdAt,value
2018-03-19T00:00:44.577Z,10.47
2018-03-19T00:03:12.108Z,8.07
2018-03-19T00:05:39.639Z,8.93
2018-03-19T00:08:07.196Z,8.67
2018-03-19T00:10:34.788Z,8.63
2018-03-19T00:13:02.314Z,10.37
2018-03-19T00:15:29.826Z,9.10
2018-03-19T00:17:57.340Z,6.43
2018-03-19T00:20:24.868Z,7.33
2018-03-19T00:22:52.399Z,10.87
2018-03-19T00:25:19.932Z,9.87
2018-03-19T00:27:47.458Z,7.47
2018-03-19T00:30:15.002Z,7.40
2018-03-19T00:32:42.533Z,8.80
2018-03-19T00:35:10.059Z,8.03
2018-03-19T00:37:37.579Z,8.43
2018-03-19T00:40:05.182Z,9.53
2018-03-19T00:42:32.684Z,7.67
2018-03-19T00:45:00.221Z,9.40
2018-03-19T00:47:27.702Z,9.67
2018-03-19T00:49:55.211Z,8.17
2018-03-19T00:52:22.735Z,8.60
2018-03-19T00:54:50.223Z,7.60
2018-03-19T00:57:17.746Z,10.30
2018-03-19T00:59:45.866Z,7.73
2018-03-19T01:02:13.361Z,7.23
2018-03-19T01:04:40.885Z,10.73
2018-03-19T01:07:08.401Z,10.23
2018-03-19T01:09:35.901Z,8.47
2018-03-19T01:12:03.410Z,7.90
2018-03-19T01:14:30.956Z,7.43
2018-03-19T01:16:58.486Z,7.73
2018-03-19T01:19:26.108Z,6.73
2018-03-19T01:21:53.609Z,8.87
2018-03-19T01:24:21.145Z,9.13
2018-03-19T01:26:48.670Z,8.33
2018-03-19T01:29:16.225Z,6.70
2018-03-19T01:31:43.760Z,7.97
2018-03-19T01:34:11.342Z,12.77
2018-03-19T01:36:38.901Z,7.30
2018-03-19T01:39:06.411Z,6.87
2018-03-19T01:41:33.925Z,9.03
2018-03-19T01:44:01.457Z,8.70
2018-03-19T01:46:28.980Z,8.93
2018-03-19T01:48:56.513Z,5.57
2018-03-19T01:51:24.025Z,8.27
2018-03-19T01:53:51.525Z,7.67
2018-03-19T01:56:19.021Z,4.43
2018-03-19T01:58:46.555Z,8.33
2018-03-19T02:01:14.105Z,13.70
2018-03-19T02:03:41.620Z,8.27
2018-03-19T02:06:09.144Z,6.73
2018-03-19T02:08:36.647Z,7.97
2018-03-19T02:11:04.179Z,9.33
2018-03-19T02:13:31.704Z,6.63
2018-03-19T02:15:59.241Z,9.73
2018-03-19T02:18:26.842Z,8.53
2018-03-19T02:20:54.348Z,7.97
2018-03-19T02:23:21.872Z,8.57
2018-03-19T02:25:49.389Z,7.27
2018-03-19T02:28:16.886Z,8.77
2018-03-19T02:30:45.062Z,8.43
2018-03-19T02:33:12.612Z,8.43
2018-03-19T02:35:40.144Z,6.70
2018-03-19T02:38:07.671Z,6.37
2018-03-19T02:40:35.193Z,6.60
2018-03-19T02:43:02.699Z,8.50
2018-03-19T02:45:30.193Z,11.60
2018-03-19T02:47:57.743Z,8.93
2018-03-19T02:50:25.275Z,6.60
2018-03-19T02:52:52.784Z,11.13
2018-03-19T02:55:20.300Z,6.33
2018-03-19T02:57:47.820Z,8.23
2018-03-19T03:00:15.365Z,9.83
2018-03-19T03:02:42.938Z,6.27
2018-03-19T03:05:10.424Z,11.00
2018-03-19T03:07:37.922Z,7.37
2018-03-19T03:10:05.422Z,9.53
2018-03-19T03:12:32.927Z,5.33
2018-03-19T03:15:00.423Z,17.23
2018-03-19T03:17:27.918Z,9.00
2018-03-19T03:19:55.400Z,8.30
2018-03-19T03:22:22.897Z,16.13
2018-03-19T03:24:50.418Z,6.30
2018-03-19T03:27:17.943Z,7.60
2018-03-19T03:29:45.495Z,15.90
2018-03-19T03:32:13.061Z,8.60
2018-03-19T03:34:40.576Z,8.47
2018-03-19T03:37:08.147Z,8.23
2018-03-19T03:39:35.659Z,7.50
2018-03-19T03:42:03.169Z,8.67
2018-03-19T03:44:30.664Z,6.77
2018-03-19T03:46:58.215Z,9.30
2018-03-19T03:49:25.737Z,8.67
2018-03-19T03:51:53.242Z,8.27
2018-03-19T03:54:20.760Z,9.27
2018-03-19T03:56:48.267Z,9.10
2018-03-19T03:59:15.842Z,11.83
2018-03-19T04:01:43.364Z,9.27
2018-03-19T04:04:10.893Z,7.63
2018-03-19T04:06:38.420Z,9.80
2018-03-19T04:09:05.943Z,13.00
2018-03-19T04:11:33.476Z,9.00
2018-03-19T04:14:00.994Z,12.97
2018-03-19T04:16:28.606Z,7.83
2018-03-19T04:18:56.130Z,5.00
2018-03-19T04:21:23.695Z,10.60
2018-03-19T04:23:51.223Z,9.30
2018-03-19T04:26:18.760Z,11.63
2018-03-19T04:28:46.258Z,9.63
2018-03-19T04:31:13.803Z,8.70
2018-03-19T04:33:41.625Z,17.60
2018-03-19T04:36:09.142Z,9.20
2018-03-19T04:38:36.662Z,9.93
2018-03-19T04:41:04.180Z,9.27
2018-03-19T04:43:31.729Z,10.27
2018-03-19T04:46:00.206Z,8.47
2018-03-19T04:48:28.500Z,8.17
2018-03-19T04:50:55.996Z,7.53
2018-03-19T04:53:23.540Z,9.53
2018-03-19T04:55:51.062Z,7.27
2018-03-19T04:58:18.621Z,10.83
2018-03-19T05:00:47.272Z,10.27
2018-03-19T05:03:15.045Z,10.90
2018-03-19T05:05:42.546Z,7.63
2018-03-19T05:08:10.049Z,12.17
2018-03-19T05:10:37.582Z,12.23
2018-03-19T05:13:05.103Z,11.43
2018-03-19T05:15:32.914Z,10.83
2018-03-19T05:18:00.492Z,13.77
2018-03-19T05:20:28.016Z,8.87
2018-03-19T05:22:55.545Z,8.53
2018-03-19T05:25:23.083Z,10.37
2018-03-19T05:27:50.572Z,11.53
2018-03-19T05:30:18.114Z,12.53
2018-03-19T05:32:45.612Z,10.03
2018-03-19T05:35:13.249Z,8.27
2018-03-19T05:37:40.752Z,8.73
2018-03-19T05:40:08.256Z,7.00
2018-03-19T05:42:35.789Z,13.60
2018-03-19T05:45:03.309Z,8.40
2018-03-19T05:47:31.030Z,11.63
2018-03-19T05:49:58.559Z,11.80
2018-03-19T05:52:26.086Z,9.30
2018-03-19T05:54:53.658Z,8.93
2018-03-19T05:57:21.141Z,6.07
2018-03-19T05:59:48.690Z,10.17
2018-03-19T06:02:16.212Z,8.77
2018-03-19T06:04:43.725Z,8.27
2018-03-19T06:07:11.236Z,9.40
2018-03-19T06:09:38.764Z,13.93
2018-03-19T06:12:06.252Z,9.40
2018-03-19T06:14:33.801Z,12.20
2018-03-19T06:17:01.295Z,11.63
2018-03-19T06:19:28.822Z,9.60
2018-03-19T06:21:56.349Z,10.77
2018-03-19T06:24:23.910Z,13.00
2018-03-19T06:26:51.409Z,11.73
2018-03-19T06:29:18.949Z,9.97
2018-03-19T06:31:46.485Z,9.67
2018-03-19T06:34:13.985Z,14.33
2018-03-19T06:36:41.512Z,10.63
2018-03-19T06:39:09.065Z,12.57
2018-03-19T06:41:36.620Z,8.13
2018-03-19T06:44:04.128Z,10.07
2018-03-19T06:46:31.657Z,10.47
2018-03-19T06:48:59.159Z,12.07
2018-03-19T06:51:26.696Z,12.10
2018-03-19T06:53:54.418Z,10.20
2018-03-19T06:56:21.955Z,10.93
2018-03-19T06:58:49.469Z,18.03
2018-03-19T07:01:16.993Z,8.77
2018-03-19T07:03:44.495Z,12.17
2018-03-19T07:06:12.031Z,13.80
2018-03-19T07:08:39.543Z,10.00
2018-03-19T07:11:07.049Z,14.33
2018-03-19T07:13:34.533Z,9.23
2018-03-19T07:16:02.057Z,9.13
2018-03-19T07:18:29.568Z,8.23
2018-03-19T07:20:57.092Z,11.80
2018-03-19T07:23:24.604Z,11.50
2018-03-19T07:25:52.158Z,15.77
2018-03-19T07:28:19.657Z,11.10
2018-03-19T07:30:47.172Z,11.37
2018-03-19T07:33:14.667Z,9.07
2018-03-19T07:35:42.158Z,15.23
2018-03-19T07:38:09.675Z,12.07
2018-03-19T07:40:37.188Z,13.13
2018-03-19T07:43:04.728Z,10.87
2018-03-19T07:45:32.275Z,10.73
2018-03-19T07:47:59.784Z,11.13
2018-03-19T07:50:27.292Z,12.73
2018-03-19T07:52:54.849Z,15.30
2018-03-19T07:55:22.384Z,11.43
2018-03-19T07:57:49.914Z,12.73
2018-03-19T08:00:17.436Z,12.23
2018-03-19T08:02:45.002Z,13.20
2018-03-19T08:05:12.537Z,14.73
2018-03-19T08:07:40.076Z,17.60
2018-03-19T08:10:07.591Z,15.97
2018-03-19T08:12:35.114Z,16.13
2018-03-19T08:15:02.685Z,18.23
2018-03-19T08:17:30.240Z,12.93
2018-03-19T08:19:57.812Z,12.57
2018-03-19T08:22:25.329Z,12.83
2018-03-19T08:24:52.858Z,15.03
2018-03-19T08:27:20.360Z,13.77
2018-03-19T08:29:47.913Z,13.00
2018-03-19T08:32:15.444Z,11.93
2018-03-19T08:34:42.947Z,12.47
2018-03-19T08:37:10.454Z,15.03
2018-03-19T08:39:37.953Z,12.20
2018-03-19T08:42:05.510Z,19.27
2018-03-19T08:44:33.039Z,12.97
2018-03-19T08:47:00.545Z,14.43
2018-03-19T08:49:28.047Z,10.20
2018-03-19T08:51:55.600Z,16.47
2018-03-19T08:54:23.269Z,10.87
2018-03-19T08:56:51.023Z,15.07
2018-03-19T08:59:18.580Z,10.83
2018-03-19T09:01:46.179Z,13.93
2018-03-19T09:04:13.733Z,10.57
2018-03-19T09:06:41.268Z,9.43
2018-03-19T09:09:08.796Z,12.23
2018-03-19T09:11:36.385Z,13.33
2018-03-19T09:14:03.907Z,9.90
2018-03-19T09:16:31.409Z,14.20
2018-03-19T09:18:58.958Z,10.30
2018-03-19T09:21:26.530Z,9.67
2018-03-19T09:23:54.082Z,15.70
2018-03-19T09:26:21.576Z,11.37
2018-03-19T09:28:49.132Z,11.40
2018-03-19T09:31:16.708Z,10.40
2018-03-19T09:33:44.213Z,11.80
2018-03-19T09:36:11.750Z,17.83
2018-03-19T09:38:39.251Z,7.93
2018-03-19T09:41:06.801Z,9.37
2018-03-19T09:43:34.320Z,12.40
2018-03-19T09:46:01.826Z,11.03
2018-03-19T09:48:29.352Z,10.80
2018-03-19T09:50:56.875Z,9.60
2018-03-19T09:53:24.378Z,11.73
2018-03-19T09:55:51.876Z,11.63
2018-03-19T09:58:19.385Z,13.50
2018-03-19T10:00:46.898Z,9.30
2018-03-19T10:03:15.268Z,11.93
2018-03-19T10:05:42.763Z,9.20
2018-03-19T10:08:10.425Z,11.73
2018-03-19T10:10:37.932Z,10.80
2018-03-19T10:13:05.445Z,12.57
2018-03-19T10:15:32.982Z,7.60
2018-03-19T10:18:00.473Z,10.00
2018-03-19T10:20:28.030Z,8.20
2018-03-19T10:22:55.532Z,10.97
2018-03-19T10:25:23.031Z,9.70
2018-03-19T10:27:50.579Z,11.73
2018-03-19T10:30:18.086Z,9.83
2018-03-19T10:32:45.601Z,8.87
2018-03-19T10:35:13.105Z,8.70
2018-03-19T10:37:40.615Z,9.33
2018-03-19T10:40:08.093Z,7.90
2018-03-19T10:42:35.569Z,9.90
2018-03-19T10:45:03.122Z,9.47
2018-03-19T10:47:30.647Z,6.37
2018-03-19T10:49:58.139Z,8.00
2018-03-19T10:52:25.731Z,11.83
2018-03-19T10:54:53.271Z,7.93
2018-03-19T10:57:20.785Z,10.97
2018-03-19T10:59:48.339Z,8.80
2018-03-19T11:02:15.847Z,8.67
2018-03-19T11:07:54.232Z,8.10
2018-03-19T11:10:21.798Z,6.07
2018-03-19T11:12:49.289Z,8.00
2018-03-19T11:15:16.855Z,8.73
2018-03-19T11:17:45.143Z,7.63
2018-03-19T11:20:12.659Z,8.10
2018-03-19T11:22:40.155Z,7.90
2018-03-19T11:25:07.683Z,6.60
2018-03-19T11:27:35.226Z,7.57
2018-03-19T11:30:02.724Z,9.03
2018-03-19T11:32:30.243Z,5.50
2018-03-19T11:34:57.748Z,5.13
2018-03-19T11:37:25.271Z,7.13
2018-03-19T11:39:52.803Z,11.77
2018-03-19T11:42:20.318Z,5.43
2018-03-19T11:44:47.825Z,6.73
2018-03-19T11:47:15.388Z,5.73
2018-03-19T11:49:42.880Z,8.97
2018-03-19T11:52:10.400Z,6.63
2018-03-19T11:54:37.918Z,8.23
2018-03-19T11:57:05.444Z,6.53
2018-03-19T11:59:32.974Z,8.23
2018-03-19T12:02:00.470Z,9.17
2018-03-19T12:04:27.993Z,8.77
2018-03-19T12:06:55.517Z,8.37
2018-03-19T12:09:23.008Z,8.43
2018-03-19T12:11:50.509Z,8.10
2018-03-19T12:14:18.009Z,8.63
2018-03-19T12:16:45.582Z,5.47
2018-03-19T12:19:13.103Z,5.90
2018-03-19T12:21:40.639Z,5.17
2018-03-19T12:24:08.179Z,7.10
2018-03-19T12:26:35.717Z,7.60
2018-03-19T12:29:03.235Z,7.67
2018-03-19T12:31:30.757Z,6.20
2018-03-19T12:33:58.284Z,5.57
2018-03-19T12:36:25.823Z,4.93
2018-03-19T12:38:53.314Z,5.77
2018-03-19T12:41:20.821Z,6.37
2018-03-19T12:43:48.425Z,5.70
2018-03-19T12:46:15.926Z,5.53
2018-03-19T12:48:43.469Z,6.97
2018-03-19T12:51:10.996Z,5.77
2018-03-19T12:53:38.569Z,5.77
2018-03-19T12:56:06.084Z,6.37
2018-03-19T12:58:33.607Z,6.03
2018-03-19T13:01:01.107Z,6.40
2018-03-19T13:03:28.684Z,4.93
2018-03-19T13:05:56.195Z,5.27
2018-03-19T13:08:23.695Z,4.07
2018-03-19T13:10:51.209Z,4.20
2018-03-19T13:13:18.726Z,3.77
2018-03-19T13:15:46.260Z,8.47
2018-03-19T13:18:13.767Z,3.80
2018-03-19T13:20:41.304Z,4.17
2018-03-19T13:23:08.853Z,3.73
2018-03-19T13:25:36.407Z,5.60
2018-03-19T13:28:03.948Z,3.77
2018-03-19T13:30:31.507Z,6.90
2018-03-19T13:32:59.046Z,5.40
2018-03-19T13:35:26.691Z,4.03
2018-03-19T13:37:54.234Z,4.07
2018-03-19T13:40:21.783Z,8.03
2018-03-19T13:42:49.275Z,4.00
2018-03-19T13:45:16.781Z,5.80
2018-03-19T13:47:44.273Z,3.90
2018-03-19T13:50:11.775Z,5.53
2018-03-19T13:52:39.288Z,5.33
2018-03-19T13:55:06.808Z,6.20
2018-03-19T13:57:34.309Z,3.63
2018-03-19T14:00:01.820Z,4.37
2018-03-19T14:02:29.394Z,6.07
2018-03-19T14:04:56.876Z,5.47
2018-03-19T14:07:24.388Z,5.70
2018-03-19T14:09:51.918Z,5.40
2018-03-19T14:12:19.463Z,6.33
2018-03-19T14:14:46.968Z,4.77
2018-03-19T14:17:14.500Z,3.73
2018-03-19T14:19:42.059Z,5.63
2018-03-19T14:22:09.563Z,4.43
2018-03-19T14:24:37.094Z,6.73
2018-03-19T14:27:04.625Z,5.70
2018-03-19T14:29:32.149Z,5.77
2018-03-19T14:31:59.665Z,6.37
2018-03-19T14:34:27.201Z,6.70
2018-03-19T14:36:54.716Z,5.03
2018-03-19T14:39:22.271Z,4.20
2018-03-19T14:41:49.767Z,8.33
2018-03-19T14:44:17.296Z,6.57
2018-03-19T14:46:44.798Z,5.00
2018-03-19T14:49:12.351Z,5.80
2018-03-19T14:51:39.844Z,3.83
2018-03-19T14:54:07.341Z,5.80
2018-03-19T14:56:34.873Z,5.70
2018-03-19T14:59:02.367Z,5.80
2018-03-19T15:01:29.894Z,9.63
2018-03-19T15:03:57.427Z,6.53
2018-03-19T15:06:24.921Z,5.13
2018-03-19T15:08:52.489Z,5.37
2018-03-19T15:11:20.015Z,5.33
2018-03-19T15:13:47.543Z,5.70
2018-03-19T15:16:15.113Z,6.20
2018-03-19T15:18:42.680Z,15.87
2018-03-19T15:21:10.176Z,7.43
2018-03-19T15:23:37.690Z,4.93
2018-03-19T15:26:05.192Z,6.77
2018-03-19T15:28:32.712Z,7.77
2018-03-19T15:31:00.205Z,7.67
2018-03-19T15:33:27.704Z,8.83
2018-03-19T15:35:55.222Z,5.60
2018-03-19T15:38:22.782Z,7.90
2018-03-19T15:40:50.286Z,6.20
2018-03-19T15:43:17.801Z,9.67
2018-03-19T15:45:45.341Z,5.70
2018-03-19T15:48:12.839Z,5.20
2018-03-19T15:50:40.384Z,5.37
2018-03-19T15:53:07.902Z,6.43
2018-03-19T15:55:36.040Z,6.40
2018-03-19T15:58:03.568Z,6.67
2018-03-19T16:00:31.071Z,5.60
2018-03-19T16:02:58.606Z,4.80
2018-03-19T16:05:26.121Z,7.33
2018-03-19T16:07:53.622Z,4.83
2018-03-19T16:10:21.151Z,12.80
2018-03-19T16:12:48.649Z,5.27
2018-03-19T16:15:16.188Z,5.33
2018-03-19T16:17:43.754Z,6.03
2018-03-19T16:20:11.267Z,13.53
2018-03-19T16:22:38.763Z,8.13
2018-03-19T16:25:06.287Z,8.50
2018-03-19T16:27:33.830Z,7.33
2018-03-19T16:30:01.384Z,6.87
2018-03-19T16:32:28.880Z,9.00
2018-03-19T16:34:56.459Z,4.67
2018-03-19T16:37:23.960Z,9.77
2018-03-19T16:39:51.467Z,6.90
2018-03-19T16:42:18.960Z,4.67
2018-03-19T16:44:46.530Z,6.07
2018-03-19T16:47:14.038Z,8.60
2018-03-19T16:49:41.549Z,7.13
2018-03-19T16:52:09.085Z,5.00
2018-03-19T16:54:36.749Z,9.90
2018-03-19T16:57:04.255Z,5.70
2018-03-19T16:59:31.790Z,7.50
2018-03-19T17:01:59.315Z,5.60
2018-03-19T17:04:26.893Z,6.87
2018-03-19T17:06:54.401Z,7.17
2018-03-19T17:09:21.895Z,7.73
2018-03-19T17:11:49.409Z,4.67
2018-03-19T17:14:16.944Z,6.57
2018-03-19T17:16:44.448Z,6.20
2018-03-19T17:19:12.020Z,5.93
2018-03-19T17:21:39.590Z,6.93
2018-03-19T17:24:07.186Z,9.10
2018-03-19T17:26:34.693Z,6.43
2018-03-19T17:29:02.218Z,5.37
2018-03-19T17:31:29.735Z,7.97
2018-03-19T17:33:57.265Z,8.60
2018-03-19T17:36:24.782Z,5.30
2018-03-19T17:38:52.274Z,9.20
2018-03-19T17:41:19.788Z,8.67
2018-03-19T17:43:47.313Z,7.93
2018-03-19T17:46:14.915Z,8.87
2018-03-19T17:48:42.470Z,10.63
2018-03-19T17:51:09.987Z,6.70
2018-03-19T17:53:37.585Z,12.07
2018-03-19T17:56:05.084Z,8.20
2018-03-19T17:58:32.598Z,7.00
2018-03-19T18:01:00.133Z,6.93
2018-03-19T18:03:27.660Z,7.20
2018-03-19T18:05:55.197Z,9.93
2018-03-19T18:08:23.372Z,7.60
2018-03-19T18:10:50.912Z,8.73
2018-03-19T18:13:18.450Z,6.33
2018-03-19T18:15:45.966Z,6.97
2018-03-19T18:18:13.489Z,9.17
2018-03-19T18:20:40.972Z,7.97
2018-03-19T18:23:12.089Z,7.37
2018-03-19T18:25:39.604Z,10.00
2018-03-19T18:28:07.143Z,9.87
2018-03-19T18:30:34.634Z,11.60
2018-03-19T18:33:03.904Z,11.53
2018-03-19T18:35:31.458Z,14.27
2018-03-19T18:38:02.413Z,13.70
2018-03-19T18:40:29.897Z,7.47
2018-03-19T18:42:57.507Z,7.37
2018-03-19T18:45:25.002Z,13.33
2018-03-19T18:47:52.532Z,9.20
2018-03-19T18:50:20.183Z,11.13
2018-03-19T18:52:47.676Z,11.00
2018-03-19T18:55:15.208Z,10.53
2018-03-19T18:57:42.760Z,10.37
2018-03-19T19:00:10.280Z,7.13
2018-03-19T19:02:37.817Z,12.97
2018-03-19T19:05:05.359Z,16.37
2018-03-19T19:07:32.893Z,11.47
2018-03-19T19:10:00.393Z,15.17
2018-03-19T19:12:27.938Z,10.10
2018-03-19T19:14:55.479Z,15.10
2018-03-19T19:17:23.000Z,13.47
2018-03-19T19:19:50.526Z,16.27
2018-03-19T19:22:18.046Z,10.37
2018-03-19T19:24:45.702Z,17.93
2018-03-19T19:27:13.219Z,13.47
2018-03-19T19:29:40.747Z,13.20
2018-03-19T19:32:10.399Z,13.20
2018-03-19T19:34:37.965Z,14.03
2018-03-19T19:37:05.504Z,11.30
2018-03-19T19:39:33.346Z,13.77
2018-03-19T19:42:01.625Z,15.90
2018-03-19T19:44:29.208Z,12.97
2018-03-19T19:46:57.046Z,22.50
2018-03-19T19:49:25.183Z,17.13
2018-03-19T19:51:54.374Z,13.87
2018-03-19T19:54:21.897Z,16.37
2018-03-19T19:56:49.438Z,17.80
2018-03-19T19:59:16.974Z,16.53
2018-03-19T20:01:44.530Z,16.67
2018-03-19T20:04:12.396Z,17.70
2018-03-19T20:06:39.955Z,16.63
2018-03-19T20:09:07.490Z,19.40
2018-03-19T20:11:35.031Z,21.27
2018-03-19T20:14:02.577Z,19.30
2018-03-19T20:16:30.108Z,15.93
2018-03-19T20:18:57.633Z,17.00
2018-03-19T20:21:25.252Z,30.70
2018-03-19T20:23:52.826Z,16.50
2018-03-19T20:26:20.477Z,19.37
2018-03-19T20:28:49.353Z,18.57
2018-03-19T20:31:16.982Z,21.83
2018-03-19T20:33:44.517Z,18.07
2018-03-19T20:36:12.259Z,18.40
2018-03-19T20:38:39.891Z,18.97
2018-03-19T20:41:07.408Z,19.77
2018-03-19T20:43:35.491Z,17.70
2018-03-19T20:46:03.017Z,24.00
2018-03-19T20:48:30.555Z,20.43
2018-03-19T20:50:58.060Z,19.90
2018-03-19T21:45:22.873Z,18.47
2018-03-19T21:47:50.406Z,28.67
2018-03-19T21:50:17.988Z,28.37
2018-03-19T21:52:45.486Z,29.07
2018-03-19T21:55:14.068Z,21.00
2018-03-19T21:57:41.719Z,29.33
2018-03-19T22:00:09.253Z,28.23
2018-03-19T22:02:36.824Z,25.67
2018-03-19T22:05:04.371Z,21.07
2018-03-19T22:07:31.899Z,25.37
2018-03-19T22:10:00.413Z,28.97
2018-03-19T22:12:28.068Z,23.40
2018-03-19T22:14:55.636Z,30.00
2018-03-19T22:17:23.184Z,27.87
2018-03-19T22:19:50.705Z,22.30
2018-03-19T22:22:20.560Z,24.00
2018-03-19T22:24:48.104Z,30.80
2018-03-19T22:27:15.691Z,20.03
2018-03-19T22:29:43.228Z,23.43
2018-03-19T22:32:11.195Z,23.27
2018-03-19T22:34:38.763Z,25.00
2018-03-19T22:37:06.305Z,27.03
2018-03-19T22:39:33.842Z,21.00
2018-03-19T22:42:01.337Z,22.77
2018-03-19T22:44:28.885Z,30.20
2018-03-19T22:46:56.440Z,25.97
2018-03-19T22:49:24.061Z,23.20
2018-03-19T22:51:51.630Z,20.43
2018-03-19T22:54:19.178Z,24.20
2018-03-19T22:56:46.714Z,26.90
2018-03-19T22:59:15.082Z,22.97
2018-03-19T23:01:43.915Z,21.60
2018-03-19T23:04:11.504Z,26.07
2018-03-19T23:06:39.044Z,26.73
2018-03-19T23:09:06.558Z,26.23
2018-03-19T23:11:34.112Z,26.47
2018-03-19T23:14:01.600Z,23.63
2018-03-19T23:16:29.219Z,19.17
2018-03-19T23:18:56.751Z,19.40
2018-03-19T23:21:24.341Z,25.43
2018-03-19T23:23:51.829Z,22.20
2018-03-19T23:26:19.411Z,19.77
2018-03-19T23:28:46.936Z,20.83
2018-03-19T23:31:14.464Z,16.20
2018-03-19T23:33:42.010Z,21.00
2018-03-19T23:36:09.516Z,21.00
2018-03-19T23:38:37.043Z,22.20
2018-03-19T23:41:04.584Z,19.80
2018-03-19T23:43:32.081Z,19.13
2018-03-19T23:45:59.609Z,17.07
2018-03-19T23:48:27.195Z,17.10
2018-03-19T23:50:54.848Z,23.60
2018-03-19T23:53:22.392Z,16.43
2018-03-19T23:55:49.987Z,19.63
2018-03-19T23:58:17.547Z,23.13
